Time;durP1;ratioP1;P1;durP2;ratioP2;P2;SDS_P1;SDS_P2;PMS_P1;PMS_P2;Temp;Humidity;BMP_temperature;BMP_pressure;BME280_temperature;BME280_humidity;BME280_pressure;Samples;Min_cycle;Max_cycle;Signal;HPM_P1;HPM_P2
2023/11/07 00:00:20;;;;;;;7.10;2.30;;;12.30;99.90;;;;;;4283290;27;20042;-56
2023/11/07 00:02:26;;;;;;;3.97;1.90;;;12.40;99.90;;;;;;4283479;27;20046;-57
2023/11/07 00:04:33;;;;;;;4.45;2.15;;;12.30;99.90;;;;;;4283341;27;20070;-56
2023/11/07 00:06:35;;;;;;;6.78;2.20;;;12.40;99.90;;;;;;4282469;27;20049;-56
2023/11/07 00:08:37;;;;;;;7.40;2.15;;;12.40;99.90;;;;;;4282667;27;20042;-56
2023/11/07 00:10:39;;;;;;;5.50;2.20;;;12.30;99.90;;;;;;4283558;27;20046;-60
2023/11/07 00:12:43;;;;;;;6.15;2.05;;;12.40;99.90;;;;;;4283111;27;20130;-56
2023/11/07 00:14:45;;;;;;;7.55;1.92;;;12.30;99.90;;;;;;4283091;27;20042;-61
2023/11/07 00:16:48;;;;;;;8.65;2.25;;;12.30;99.90;;;;;;4283103;27;20129;-55
2023/11/07 00:18:50;;;;;;;8.40;2.15;;;12.30;99.90;;;;;;4283115;27;20132;-55
2023/11/07 00:20:52;;;;;;;9.57;2.78;;;12.30;99.90;;;;;;4282959;27;20042;-56
2023/11/07 00:22:54;;;;;;;5.72;1.95;;;12.40;99.90;;;;;;4283004;27;20042;-55
2023/11/07 00:24:56;;;;;;;4.82;1.92;;;12.40;99.90;;;;;;4282923;27;20094;-57
2023/11/07 00:26:58;;;;;;;3.78;1.70;;;12.40;99.90;;;;;;4283105;27;20076;-56
2023/11/07 00:29:02;;;;;;;6.45;2.05;;;12.40;99.90;;;;;;4282753;27;20045;-56
2023/11/07 00:31:04;;;;;;;9.07;2.22;;;12.40;99.90;;;;;;4283114;27;20070;-56
2023/11/07 00:33:06;;;;;;;7.85;2.35;;;12.30;99.90;;;;;;4282851;27;20464;-55
2023/11/07 00:35:09;;;;;;;6.72;2.13;;;12.30;99.90;;;;;;4282641;27;20073;-57
2023/11/07 00:37:11;;;;;;;8.20;2.13;;;12.30;99.90;;;;;;4282790;27;20038;-55
2023/11/07 00:39:14;;;;;;;5.18;1.88;;;12.40;99.90;;;;;;4282727;27;20047;-56
2023/11/07 00:41:16;;;;;;;3.45;1.70;;;12.40;99.90;;;;;;4283185;27;20049;-56
2023/11/07 00:43:18;;;;;;;8.43;2.25;;;12.40;99.90;;;;;;4282865;27;20054;-56
2023/11/07 00:45:23;;;;;;;5.95;1.95;;;12.30;99.90;;;;;;4283000;27;20038;-56
2023/11/07 00:47:25;;;;;;;5.93;1.80;;;12.30;99.90;;;;;;4282953;27;20050;-56
2023/11/07 00:49:28;;;;;;;5.60;2.00;;;12.30;99.90;;;;;;4282401;27;20125;-56
2023/11/07 00:51:30;;;;;;;7.28;1.73;;;12.40;99.90;;;;;;4282520;27;20065;-56
2023/11/07 00:53:33;;;;;;;6.63;2.10;;;12.50;99.90;;;;;;4282634;27;20046;-57
2023/11/07 00:55:35;;;;;;;4.50;1.92;;;12.40;99.90;;;;;;4282775;27;20415;-56
2023/11/07 00:57:37;;;;;;;6.05;1.83;;;12.50;99.90;;;;;;4282344;27;20069;-56
2023/11/07 00:59:39;;;;;;;4.40;1.50;;;12.50;99.90;;;;;;4282579;27;20050;-56
2023/11/07 01:01:43;;;;;;;7.75;1.95;;;12.50;99.90;;;;;;4282524;27;20074;-56
2023/11/07 01:03:46;;;;;;;6.60;1.67;;;12.60;99.90;;;;;;4282146;27;20489;-56
2023/11/07 01:05:48;;;;;;;4.30;1.55;;;12.70;99.90;;;;;;4282360;27;20050;-56
2023/11/07 01:07:50;;;;;;;7.38;1.90;;;12.60;99.90;;;;;;4282394;27;20414;-56
2023/11/07 01:09:52;;;;;;;4.80;1.63;;;12.60;99.90;;;;;;4282557;27;20286;-55
2023/11/07 01:11:54;;;;;;;4.15;1.50;;;12.60;99.90;;;;;;4263805;27;20138;-56
2023/11/07 01:13:56;;;;;;;4.78;1.30;;;12.60;99.90;;;;;;4282491;27;20049;-55
2023/11/07 01:15:58;;;;;;;3.75;1.42;;;12.60;99.90;;;;;;4282486;27;20388;-56
2023/11/07 01:18:02;;;;;;;5.13;1.52;;;12.60;99.90;;;;;;4281968;27;20046;-56
2023/11/07 01:20:06;;;;;;;2.40;1.17;;;12.60;99.90;;;;;;4282512;27;20117;-56
2023/11/07 01:22:09;;;;;;;2.42;0.85;;;12.50;99.90;;;;;;4282676;27;20434;-57
2023/11/07 01:24:12;;;;;;;5.88;1.70;;;12.60;99.90;;;;;;4282548;27;20042;-56
2023/11/07 01:26:14;;;;;;;5.03;1.58;;;12.50;99.90;;;;;;4282394;27;20509;-56
2023/11/07 01:28:20;;;;;;;4.97;1.40;;;12.60;99.90;;;;;;4282231;27;20410;-57
2023/11/07 01:30:22;;;;;;;3.30;1.33;;;12.50;99.90;;;;;;4282264;27;20095;-56
2023/11/07 01:32:24;;;;;;;6.82;1.50;;;12.50;99.90;;;;;;4281995;27;20440;-57
2023/11/07 01:34:28;;;;;;;3.35;1.30;;;12.50;99.90;;;;;;4282143;27;20437;-56
2023/11/07 01:36:30;;;;;;;3.78;1.48;;;12.50;99.90;;;;;;4282023;27;20144;-56
2023/11/07 01:38:33;;;;;;;4.82;1.42;;;12.50;99.90;;;;;;4282128;27;20074;-57
2023/11/07 01:40:35;;;;;;;5.53;1.52;;;12.60;99.90;;;;;;4282068;27;20098;-57
2023/11/07 01:42:41;;;;;;;6.30;1.67;;;12.70;99.90;;;;;;4282155;27;20466;-60
2023/11/07 01:44:49;;;;;;;3.60;1.10;;;12.60;99.90;;;;;;4282910;27;20046;-55
2023/11/07 01:46:51;;;;;;;4.72;1.30;;;12.60;99.90;;;;;;4283181;27;20049;-55
2023/11/07 01:48:54;;;;;;;4.90;1.15;;;12.60;99.90;;;;;;4282132;27;20483;-56
2023/11/07 01:50:58;;;;;;;4.95;1.23;;;12.60;99.90;;;;;;4281997;27;20039;-55
2023/11/07 01:53:01;;;;;;;6.28;1.50;;;12.60;99.90;;;;;;4281909;27;20049;-56
2023/11/07 01:55:05;;;;;;;3.08;1.02;;;12.70;99.90;;;;;;4282161;27;20066;-57
2023/11/07 01:57:08;;;;;;;6.47;1.20;;;12.60;99.90;;;;;;4281942;27;20121;-57
2023/11/07 01:59:10;;;;;;;10.35;1.65;;;12.70;99.90;;;;;;4282016;27;20042;-57
2023/11/07 02:01:12;;;;;;;3.38;1.20;;;12.60;99.90;;;;;;4281409;27;20093;-56
2023/11/07 02:03:14;;;;;;;3.45;1.42;;;12.60;99.90;;;;;;4263656;27;20046;-56
2023/11/07 02:05:16;;;;;;;3.92;1.63;;;12.60;99.90;;;;;;4282061;27;20502;-56
2023/11/07 02:07:19;;;;;;;3.95;1.30;;;12.60;99.90;;;;;;4282230;27;20042;-55
2023/11/07 02:09:22;;;;;;;5.90;1.52;;;12.50;99.90;;;;;;4282119;27;20043;-56
2023/11/07 02:11:28;;;;;;;3.50;1.30;;;12.50;99.90;;;;;;4281847;27;20042;-56
2023/11/07 02:13:30;;;;;;;10.65;2.67;;;12.50;99.90;;;;;;4281869;27;20046;-56
2023/11/07 02:15:35;;;;;;;5.30;1.83;;;12.40;99.90;;;;;;4281571;27;20388;-56
2023/11/07 02:17:37;;;;;;;4.68;1.65;;;12.30;99.90;;;;;;4279557;27;20046;-56
2023/11/07 02:19:39;;;;;;;8.27;2.60;;;12.30;99.90;;;;;;4264372;27;20057;-58
2023/11/07 02:21:42;;;;;;;5.68;1.98;;;12.30;99.90;;;;;;4264365;27;20099;-61
2023/11/07 02:23:46;;;;;;;5.22;1.40;;;12.30;99.90;;;;;;4264558;27;20492;-56
2023/11/07 02:25:51;;;;;;;6.10;1.45;;;12.20;99.90;;;;;;4264493;27;20049;-56
2023/11/07 02:27:53;;;;;;;8.25;1.83;;;12.20;99.90;;;;;;4264462;27;20046;-56
2023/11/07 02:29:55;;;;;;;4.45;0.98;;;12.10;99.90;;;;;;4264245;27;20074;-56
2023/11/07 02:31:57;;;;;;;5.97;1.55;;;12.10;99.90;;;;;;4267772;27;20103;-56
2023/11/07 02:33:59;;;;;;;3.95;1.42;;;12.00;99.90;;;;;;4267864;27;20093;-57
2023/11/07 02:36:01;;;;;;;3.63;1.20;;;12.00;99.90;;;;;;4268018;27;20043;-57
2023/11/07 02:38:03;;;;;;;6.47;1.63;;;12.00;99.90;;;;;;4267303;27;20039;-57
2023/11/07 02:40:11;;;;;;;3.95;1.20;;;11.90;99.90;;;;;;4267660;27;20042;-56
2023/11/07 02:42:13;;;;;;;5.70;1.77;;;11.90;99.90;;;;;;4267506;27;20042;-56
2023/11/07 02:44:15;;;;;;;5.00;1.35;;;11.90;99.90;;;;;;4267440;27;20453;-56
2023/11/07 02:46:17;;;;;;;4.22;1.35;;;11.90;99.90;;;;;;4267058;27;20049;-56
2023/11/07 02:48:20;;;;;;;5.55;1.55;;;11.90;99.90;;;;;;4267479;27;20082;-56
2023/11/07 02:50:22;;;;;;;5.53;1.27;;;11.90;99.90;;;;;;4267134;27;20046;-56
2023/11/07 02:52:25;;;;;;;3.83;1.65;;;11.80;99.90;;;;;;4267507;27;20044;-56
2023/11/07 02:54:27;;;;;;;3.90;1.58;;;11.70;99.90;;;;;;4267081;27;20070;-57
2023/11/07 02:56:31;;;;;;;3.50;1.30;;;11.70;99.90;;;;;;4267191;27;20046;-55
2023/11/07 02:58:34;;;;;;;5.40;1.50;;;11.70;99.90;;;;;;4267108;27;20039;-56
2023/11/07 03:00:35;;;;;;;4.20;1.35;;;11.70;99.90;;;;;;4266959;27;20042;-58
2023/11/07 03:02:38;;;;;;;5.38;1.35;;;11.70;99.90;;;;;;4267185;27;20501;-56
2023/11/07 03:04:42;;;;;;;5.57;1.42;;;11.70;99.90;;;;;;4267585;27;20051;-57
2023/11/07 03:06:44;;;;;;;5.43;1.75;;;11.70;99.90;;;;;;4267283;27;20522;-56
2023/11/07 03:08:46;;;;;;;4.85;1.67;;;11.60;99.90;;;;;;4267351;27;20066;-56
2023/11/07 03:10:48;;;;;;;8.07;1.35;;;11.60;99.90;;;;;;4267221;27;20053;-57
2023/11/07 03:12:51;;;;;;;10.70;1.65;;;11.50;99.90;;;;;;4266910;27;20051;-55
2023/11/07 03:14:54;;;;;;;4.35;1.27;;;11.50;99.90;;;;;;4266851;27;20496;-56
2023/11/07 03:16:56;;;;;;;3.80;1.58;;;11.50;99.90;;;;;;4266836;27;20156;-56
2023/11/07 03:18:58;;;;;;;3.92;1.33;;;11.50;99.90;;;;;;4266613;27;20085;-57
2023/11/07 03:21:00;;;;;;;6.28;1.40;;;11.40;99.90;;;;;;4266887;27;20419;-56
2023/11/07 03:23:02;;;;;;;8.75;1.98;;;11.50;99.90;;;;;;4266854;27;20373;-55
2023/11/07 03:25:05;;;;;;;8.15;1.60;;;11.50;99.90;;;;;;4266798;27;20042;-57
2023/11/07 03:27:07;;;;;;;9.45;1.88;;;11.50;99.90;;;;;;4266617;27;20402;-56
2023/11/07 03:29:11;;;;;;;4.80;1.50;;;11.50;99.90;;;;;;4266478;27;20047;-55
2023/11/07 03:31:13;;;;;;;7.35;1.65;;;11.50;99.90;;;;;;4266543;27;20484;-56
2023/11/07 03:33:19;;;;;;;5.72;1.42;;;11.50;99.90;;;;;;4266641;27;20054;-57
2023/11/07 03:35:23;;;;;;;7.97;1.70;;;11.50;99.90;;;;;;4266615;27;20046;-55
2023/11/07 03:37:25;;;;;;;4.28;1.50;;;11.40;99.90;;;;;;4266724;27;20125;-56
2023/11/07 03:39:27;;;;;;;4.10;1.40;;;11.40;99.90;;;;;;4266348;27;20055;-55
2023/11/07 03:41:29;;;;;;;6.65;1.50;;;11.30;99.90;;;;;;4266104;27;20126;-55
2023/11/07 03:43:33;;;;;;;8.18;1.92;;;11.40;99.90;;;;;;4265386;27;20046;-56
2023/11/07 03:45:37;;;;;;;5.60;1.70;;;11.50;99.90;;;;;;4266601;27;20047;-55
2023/11/07 03:47:39;;;;;;;8.10;1.80;;;11.40;99.90;;;;;;4266119;27;20091;-56
2023/11/07 03:49:42;;;;;;;6.13;1.55;;;11.40;99.90;;;;;;4266364;27;20051;-56
2023/11/07 03:51:45;;;;;;;7.10;1.90;;;11.50;99.90;;;;;;4266425;27;20043;-56
2023/11/07 03:53:48;;;;;;;6.70;1.65;;;11.40;99.90;;;;;;4248137;27;20516;-56
2023/11/07 03:55:50;;;;;;;4.45;1.40;;;11.30;99.90;;;;;;4266312;27;20049;-56
2023/11/07 03:57:53;;;;;;;6.70;2.08;;;11.30;99.90;;;;;;4266135;27;20123;-55
2023/11/07 03:59:55;;;;;;;8.98;2.20;;;11.30;99.90;;;;;;4266417;27;20065;-56
2023/11/07 04:02:00;;;;;;;6.50;1.63;;;11.20;99.90;;;;;;4247671;27;20047;-56
2023/11/07 04:04:03;;;;;;;6.80;2.00;;;11.30;99.90;;;;;;4265988;27;20046;-56
2023/11/07 04:06:06;;;;;;;7.25;1.58;;;11.20;99.90;;;;;;4266223;27;20476;-56
2023/11/07 04:08:08;;;;;;;4.93;1.58;;;11.30;99.90;;;;;;4265910;27;20047;-57
2023/11/07 04:10:10;;;;;;;3.85;1.42;;;11.40;99.90;;;;;;4265815;27;20047;-56
2023/11/07 04:12:12;;;;;;;9.95;1.52;;;11.40;99.90;;;;;;4265674;27;20491;-56
2023/11/07 04:14:17;;;;;;;5.55;1.50;;;11.40;99.90;;;;;;4265766;27;20074;-55
2023/11/07 04:16:20;;;;;;;5.68;1.95;;;11.50;99.90;;;;;;4266534;27;20395;-57
2023/11/07 04:18:24;;;;;;;10.77;1.85;;;11.40;99.90;;;;;;4267102;27;20085;-57
2023/11/07 04:20:26;;;;;;;9.05;2.15;;;11.40;99.90;;;;;;4266224;27;20040;-56
2023/11/07 04:22:29;;;;;;;7.32;1.73;;;11.50;99.90;;;;;;4265953;27;20050;-56
2023/11/07 04:24:31;;;;;;;7.90;1.73;;;11.50;99.90;;;;;;4265848;27;20051;-56
2023/11/07 04:26:33;;;;;;;11.32;2.05;;;11.50;99.90;;;;;;4265569;27;20050;-56
2023/11/07 04:28:39;;;;;;;7.35;2.05;;;11.50;99.90;;;;;;4265534;27;20081;-56
2023/11/07 04:30:41;;;;;;;11.73;1.92;;;11.40;99.90;;;;;;4265671;27;20042;-56
2023/11/07 04:32:43;;;;;;;7.07;1.75;;;11.30;99.90;;;;;;4265726;27;20053;-56
2023/11/07 04:34:47;;;;;;;7.03;1.80;;;11.30;99.90;;;;;;4265463;27;20099;-56
2023/11/07 04:36:51;;;;;;;8.55;1.95;;;11.30;99.90;;;;;;4265844;27;20072;-57
2023/11/07 04:38:54;;;;;;;4.25;1.45;;;11.30;99.90;;;;;;4265495;27;20049;-55
2023/11/07 04:40:56;;;;;;;11.25;1.80;;;11.30;99.90;;;;;;4265061;27;20381;-57
2023/11/07 04:43:00;;;;;;;9.95;1.65;;;11.30;99.90;;;;;;4265151;27;20054;-56
2023/11/07 04:45:06;;;;;;;6.35;1.50;;;11.30;99.90;;;;;;4247062;27;20538;-56
2023/11/07 04:47:09;;;;;;;6.15;2.10;;;11.30;99.90;;;;;;4265149;27;20038;-57
2023/11/07 04:49:13;;;;;;;7.68;1.70;;;11.30;99.90;;;;;;4265224;27;20082;-57
2023/11/07 04:51:17;;;;;;;6.78;1.98;;;11.20;99.90;;;;;;4265595;27;20050;-56
2023/11/07 04:53:19;;;;;;;6.78;1.85;;;11.20;99.90;;;;;;4264951;27;20095;-57
2023/11/07 04:55:22;;;;;;;10.25;2.10;;;11.20;99.90;;;;;;4265157;27;20365;-57
2023/11/07 04:57:25;;;;;;;7.78;1.63;;;11.20;99.90;;;;;;4265321;27;20042;-56
2023/11/07 04:59:27;;;;;;;7.47;1.83;;;11.20;99.90;;;;;;4265196;27;20081;-56
2023/11/07 05:01:29;;;;;;;5.68;2.00;;;11.10;99.90;;;;;;4265052;27;20053;-56
2023/11/07 05:03:31;;;;;;;9.68;2.15;;;11.10;99.90;;;;;;4265071;27;20098;-56
2023/11/07 05:05:42;;;;;;;12.15;1.50;;;11.00;99.90;;;;;;4264972;27;20047;-55
2023/11/07 05:07:45;;;;;;;7.55;1.83;;;10.90;99.90;;;;;;4265155;27;20042;-58
2023/11/07 05:09:47;;;;;;;7.95;2.15;;;10.90;99.90;;;;;;4264902;27;20046;-55
2023/11/07 05:11:50;;;;;;;5.78;1.80;;;10.80;99.90;;;;;;4265436;27;20130;-56
2023/11/07 05:13:52;;;;;;;7.50;2.03;;;10.90;99.90;;;;;;4265268;27;20435;-56
2023/11/07 05:15:56;;;;;;;6.47;2.08;;;10.80;99.90;;;;;;4265282;27;20070;-56
2023/11/07 05:17:58;;;;;;;7.70;2.10;;;10.80;99.90;;;;;;4265193;27;20034;-56
2023/11/07 05:20:00;;;;;;;10.75;1.92;;;11.00;99.90;;;;;;4264815;27;20051;-57
2023/11/07 05:22:03;;;;;;;8.80;1.90;;;10.80;99.90;;;;;;4265173;27;20099;-56
2023/11/07 05:24:07;;;;;;;7.75;2.35;;;10.80;99.90;;;;;;4264669;27;20050;-56
2023/11/07 05:26:10;;;;;;;12.63;1.73;;;10.70;99.90;;;;;;4265017;27;20047;-55
2023/11/07 05:28:12;;;;;;;9.77;2.30;;;10.70;99.90;;;;;;4264704;27;20050;-56
2023/11/07 05:30:14;;;;;;;10.40;2.17;;;10.70;99.90;;;;;;4265405;27;20046;-56
2023/11/07 05:32:16;;;;;;;4.72;1.95;;;10.70;99.90;;;;;;4265251;27;20043;-55
2023/11/07 05:34:18;;;;;;;9.45;2.22;;;10.70;99.90;;;;;;4264932;27;20506;-55
2023/11/07 05:36:20;;;;;;;10.45;2.20;;;10.60;99.90;;;;;;4247348;28;20047;-56
2023/11/07 05:38:22;;;;;;;15.90;2.47;;;10.70;99.90;;;;;;4264473;27;20147;-58
2023/11/07 05:40:27;;;;;;;7.95;1.92;;;10.70;99.90;;;;;;4264913;27;20054;-56
2023/11/07 05:42:29;;;;;;;6.15;1.98;;;10.60;99.90;;;;;;4264702;27;20129;-56
2023/11/07 05:44:31;;;;;;;9.73;1.95;;;10.60;99.90;;;;;;4264719;27;20042;-57
2023/11/07 05:46:34;;;;;;;10.13;2.35;;;10.50;99.90;;;;;;4264798;27;20351;-56
2023/11/07 05:48:37;;;;;;;10.25;2.42;;;10.60;99.90;;;;;;4265098;27;20138;-56
2023/11/07 05:50:39;;;;;;;7.78;2.30;;;10.60;99.90;;;;;;4264924;27;20046;-56
2023/11/07 05:52:41;;;;;;;8.25;2.83;;;10.60;99.90;;;;;;4264919;27;20043;-56
2023/11/07 05:54:44;;;;;;;8.93;1.85;;;10.50;99.90;;;;;;4264353;27;20049;-57
2023/11/07 05:56:48;;;;;;;6.53;2.08;;;10.50;99.90;;;;;;4264855;27;20049;-56
2023/11/07 05:58:50;;;;;;;7.90;2.17;;;10.60;99.90;;;;;;4264692;27;20442;-55
2023/11/07 06:00:54;;;;;;;12.93;2.58;;;10.60;99.90;;;;;;4264845;27;20078;-56
2023/11/07 06:02:56;;;;;;;8.10;2.17;;;10.60;99.90;;;;;;4264512;27;20047;-56
2023/11/07 06:04:58;;;;;;;10.23;2.45;;;10.60;99.90;;;;;;4265059;27;20407;-55
2023/11/07 06:07:01;;;;;;;9.75;2.63;;;10.60;99.90;;;;;;4268065;27;20047;-56
2023/11/07 06:09:03;;;;;;;5.85;1.80;;;10.70;99.90;;;;;;4267920;27;20074;-56
2023/11/07 06:11:05;;;;;;;11.93;2.53;;;10.70;99.90;;;;;;4267928;27;20492;-56
2023/11/07 06:13:09;;;;;;;8.77;2.60;;;10.70;99.90;;;;;;4268200;27;20050;-56
2023/11/07 06:15:11;;;;;;;8.63;1.95;;;10.70;99.90;;;;;;4267955;27;20042;-55
2023/11/07 06:17:13;;;;;;;9.00;2.50;;;10.70;99.90;;;;;;4267997;27;20047;-55
2023/11/07 06:19:15;;;;;;;9.65;2.47;;;10.60;99.90;;;;;;4267642;27;20051;-55
2023/11/07 06:21:18;;;;;;;11.05;2.55;;;10.50;99.90;;;;;;4268058;27;20042;-55
2023/11/07 06:23:20;;;;;;;11.50;2.70;;;10.50;99.90;;;;;;4267605;27;20042;-55
2023/11/07 06:25:24;;;;;;;8.15;2.40;;;10.50;99.90;;;;;;4267697;27;20043;-56
2023/11/07 06:27:26;;;;;;;9.63;2.20;;;10.60;99.90;;;;;;4267737;27;20042;-55
2023/11/07 06:29:30;;;;;;;5.63;2.13;;;10.60;99.90;;;;;;4267600;27;20088;-56
2023/11/07 06:31:32;;;;;;;7.47;1.88;;;10.60;99.90;;;;;;4267681;27;20042;-56
2023/11/07 06:33:34;;;;;;;8.45;1.85;;;10.50;99.90;;;;;;4267693;27;20122;-56
2023/11/07 06:35:37;;;;;;;7.40;2.00;;;10.60;99.90;;;;;;4249111;27;20113;-56
2023/11/07 06:37:39;;;;;;;7.90;1.65;;;10.60;99.90;;;;;;4267472;27;20089;-56
2023/11/07 06:39:41;;;;;;;8.10;1.95;;;10.80;99.90;;;;;;4267417;27;20074;-56
2023/11/07 06:41:43;;;;;;;5.00;1.88;;;10.80;99.90;;;;;;4267262;27;20061;-56
2023/11/07 06:43:46;;;;;;;6.68;1.80;;;10.80;99.90;;;;;;4267302;27;20042;-57
2023/11/07 06:45:50;;;;;;;6.40;2.05;;;10.90;99.90;;;;;;4267403;27;20042;-55
2023/11/07 06:47:52;;;;;;;7.50;2.33;;;11.00;99.90;;;;;;4267358;27;20058;-56
2023/11/07 06:49:54;;;;;;;7.15;1.70;;;10.90;99.90;;;;;;4267329;27;20103;-56
2023/11/07 06:51:57;;;;;;;12.88;2.22;;;10.90;99.90;;;;;;4267035;27;20174;-57
2023/11/07 06:54:02;;;;;;;5.53;2.05;;;11.00;99.90;;;;;;4267190;27;20492;-56
2023/11/07 06:56:05;;;;;;;9.35;2.17;;;10.90;99.90;;;;;;4267154;27;20038;-56
2023/11/07 06:58:08;;;;;;;10.02;2.55;;;10.90;99.90;;;;;;4267169;27;20066;-57
2023/11/07 07:00:10;;;;;;;9.60;2.03;;;10.90;99.90;;;;;;4248777;27;20080;-56
2023/11/07 07:02:14;;;;;;;9.70;2.25;;;10.90;99.90;;;;;;4267446;27;20052;-57
2023/11/07 07:04:16;;;;;;;12.73;2.83;;;10.90;99.90;;;;;;4267181;27;20085;-56
2023/11/07 07:06:18;;;;;;;8.05;2.40;;;10.80;99.90;;;;;;4266707;27;20042;-56
2023/11/07 07:08:24;;;;;;;7.80;2.33;;;10.80;99.90;;;;;;4267197;27;20047;-56
2023/11/07 07:10:26;;;;;;;15.05;2.60;;;10.80;99.90;;;;;;4266952;27;20118;-56
2023/11/07 07:12:29;;;;;;;9.05;2.05;;;10.70;99.90;;;;;;4267021;27;20117;-56
2023/11/07 07:14:31;;;;;;;8.05;1.85;;;10.70;99.90;;;;;;4266840;27;20204;-56
2023/11/07 07:16:34;;;;;;;8.38;2.60;;;10.80;99.90;;;;;;4266911;27;20400;-55
2023/11/07 07:18:39;;;;;;;9.88;2.55;;;10.70;99.90;;;;;;4266779;27;20092;-56
2023/11/07 07:20:44;;;;;;;8.40;2.42;;;10.70;99.90;;;;;;4266912;27;20049;-55
2023/11/07 07:22:47;;;;;;;11.05;2.03;;;10.70;99.90;;;;;;4266928;27;20523;-56
2023/11/07 07:24:49;;;;;;;10.52;2.63;;;10.70;99.90;;;;;;4266639;27;20096;-56
2023/11/07 07:26:51;;;;;;;8.30;2.47;;;10.60;99.90;;;;;;4266854;27;20051;-56
2023/11/07 07:28:53;;;;;;;14.80;2.42;;;10.60;99.90;;;;;;4266547;27;20129;-54
2023/11/07 07:30:55;;;;;;;7.50;1.95;;;10.50;99.90;;;;;;4266504;27;20066;-56
2023/11/07 07:32:57;;;;;;;7.25;2.22;;;10.60;99.90;;;;;;4266634;27;20038;-55
2023/11/07 07:35:01;;;;;;;9.05;2.33;;;10.60;99.90;;;;;;4266481;27;20462;-56
2023/11/07 07:37:06;;;;;;;12.15;2.38;;;10.50;99.90;;;;;;4266924;27;20473;-57
2023/11/07 07:39:08;;;;;;;8.93;2.45;;;10.50;99.90;;;;;;4266443;27;20047;-55
2023/11/07 07:41:10;;;;;;;11.55;2.10;;;10.60;99.90;;;;;;4266578;27;20054;-55
2023/11/07 07:43:13;;;;;;;7.82;2.10;;;10.60;99.90;;;;;;4266095;27;20054;-54
2023/11/07 07:45:15;;;;;;;10.45;2.33;;;10.60;99.90;;;;;;4266801;27;20081;-55
2023/11/07 07:47:17;;;;;;;18.50;2.78;;;10.70;99.90;;;;;;4266831;27;20039;-67
2023/11/07 07:49:23;;;;;;;13.40;2.33;;;10.60;99.90;;;;;;4266706;27;20047;-55
2023/11/07 07:51:27;;;;;;;9.73;2.30;;;10.60;99.90;;;;;;4266726;27;20059;-55
2023/11/07 07:53:29;;;;;;;8.63;2.97;;;10.60;99.90;;;;;;4266600;27;20117;-56
2023/11/07 07:55:31;;;;;;;13.95;2.72;;;10.70;99.90;;;;;;4266406;27;20046;-57
2023/11/07 07:57:39;;;;;;;10.70;2.88;;;10.60;99.90;;;;;;4266340;27;20038;-56
2023/11/07 07:59:41;;;;;;;10.13;2.58;;;10.70;99.90;;;;;;4266318;27;20483;-55
2023/11/07 08:01:44;;;;;;;11.90;2.40;;;10.60;99.90;;;;;;4266375;27;20042;-55
2023/11/07 08:03:48;;;;;;;10.07;2.53;;;10.60;99.90;;;;;;4265521;27;20486;-55
2023/11/07 08:05:55;;;;;;;9.15;2.45;;;10.70;99.90;;;;;;4266044;27;20416;-55
2023/11/07 08:08:08;;;;;;;7.63;1.85;;;10.80;99.90;;;;;;4265973;27;20046;-57
2023/11/07 08:10:16;;;;;;;8.30;2.50;;;10.90;99.90;;;;;;4247698;27;20484;-56
2023/11/07 08:12:20;;;;;;;12.00;2.40;;;11.00;99.90;;;;;;4267026;27;20438;-59
2023/11/07 08:14:22;;;;;;;7.40;2.05;;;10.90;99.90;;;;;;4267358;27;20517;-57
2023/11/07 08:16:24;;;;;;;7.25;2.17;;;11.00;99.90;;;;;;4266651;27;20103;-57
2023/11/07 08:18:26;;;;;;;9.75;2.47;;;11.00;99.90;;;;;;4265673;27;20043;-57
2023/11/07 08:20:29;;;;;;;7.72;2.38;;;10.90;99.90;;;;;;4265978;27;20073;-56
2023/11/07 08:22:31;;;;;;;9.43;2.20;;;11.00;99.90;;;;;;4265691;27;20423;-55
2023/11/07 08:24:35;;;;;;;12.48;2.85;;;11.00;99.90;;;;;;4265848;27;20129;-55
2023/11/07 08:26:37;;;;;;;14.40;3.13;;;11.00;99.90;;;;;;4266101;27;20085;-56
2023/11/07 08:28:43;;;;;;;12.43;2.97;;;10.90;99.90;;;;;;4246814;27;20054;-56
2023/11/07 08:30:47;;;;;;;7.40;2.47;;;10.90;99.90;;;;;;4265880;27;20476;-55
2023/11/07 08:32:49;;;;;;;11.63;2.60;;;11.10;99.90;;;;;;4265484;27;20074;-56
2023/11/07 08:34:52;;;;;;;18.95;3.58;;;11.10;99.90;;;;;;4265810;27;20047;-56
2023/11/07 08:36:54;;;;;;;12.20;2.55;;;11.00;99.90;;;;;;4265877;27;20503;-56
2023/11/07 08:39:27;;;;;;;13.95;3.58;;;11.10;99.90;;;;;;4265799;27;20050;-55
2023/11/07 08:41:31;;;;;;;16.98;3.58;;;11.00;99.90;;;;;;4266562;27;20480;-57
2023/11/07 08:43:33;;;;;;;10.35;2.72;;;10.90;99.90;;;;;;4266489;27;20038;-57
2023/11/07 08:45:36;;;;;;;12.27;2.85;;;11.00;99.90;;;;;;4265988;27;20046;-56
2023/11/07 08:47:38;;;;;;;12.32;3.05;;;11.00;99.90;;;;;;4267170;27;20034;-61
2023/11/07 08:49:40;;;;;;;15.80;2.90;;;11.00;99.90;;;;;;4266850;27;20062;-57
2023/11/07 08:51:42;;;;;;;12.88;3.75;;;11.10;99.90;;;;;;4266769;27;20042;-63
2023/11/07 08:53:44;;;;;;;13.82;2.83;;;11.20;99.90;;;;;;4267053;27;20133;-56
2023/11/07 08:55:50;;;;;;;13.43;3.40;;;11.20;99.90;;;;;;4267402;27;20042;-57
2023/11/07 08:57:53;;;;;;;17.42;3.75;;;11.20;99.90;;;;;;4267127;27;20129;-58
2023/11/07 08:59:55;;;;;;;15.55;3.13;;;11.20;99.90;;;;;;4267106;27;20042;-69
2023/11/07 09:01:57;;;;;;;15.85;3.25;;;11.20;99.90;;;;;;4266852;27;20072;-61
2023/11/07 09:04:00;;;;;;;17.80;3.05;;;11.20;99.90;;;;;;4266945;27;20402;-62
2023/11/07 09:06:05;;;;;;;18.15;3.42;;;11.20;99.90;;;;;;4266671;27;20046;-62
2023/11/07 09:08:07;;;;;;;16.75;3.13;;;11.40;99.90;;;;;;4267180;27;20046;-57
2023/11/07 09:10:12;;;;;;;13.63;4.28;;;11.40;99.90;;;;;;4266615;27;20046;-58
2023/11/07 09:12:14;;;;;;;15.02;2.42;;;11.50;99.90;;;;;;4265424;27;20051;-55
2023/11/07 09:14:18;;;;;;;19.00;3.15;;;11.50;99.90;;;;;;4265147;27;20043;-57
2023/11/07 09:16:21;;;;;;;18.85;3.50;;;11.50;99.90;;;;;;4265015;27;20125;-57
2023/11/07 09:18:23;;;;;;;13.70;2.90;;;11.50;99.90;;;;;;4273803;27;20398;-55
2023/11/07 09:20:25;;;;;;;11.10;2.83;;;11.50;99.90;;;;;;4282359;27;20080;-56
2023/11/07 09:22:27;;;;;;;11.18;2.95;;;11.50;99.90;;;;;;4282470;27;20042;-56
2023/11/07 09:24:29;;;;;;;16.33;3.10;;;11.50;99.90;;;;;;4281896;27;20125;-56
2023/11/07 09:26:31;;;;;;;12.20;2.60;;;11.50;99.90;;;;;;4282284;27;20042;-56
2023/11/07 09:28:33;;;;;;;19.23;2.72;;;11.50;99.90;;;;;;4282354;27;20057;-56
2023/11/07 09:30:36;;;;;;;20.95;3.70;;;11.50;99.90;;;;;;4281914;27;20134;-56
2023/11/07 09:32:40;;;;;;;13.18;3.00;;;11.60;99.90;;;;;;4282144;27;20471;-56
2023/11/07 09:34:42;;;;;;;10.32;3.03;;;11.50;99.90;;;;;;4282325;27;20114;-55
2023/11/07 09:36:44;;;;;;;13.45;3.10;;;11.60;99.90;;;;;;4282160;27;20047;-55
2023/11/07 09:38:46;;;;;;;17.08;3.72;;;11.60;99.90;;;;;;4282675;27;20117;-57
2023/11/07 09:40:57;;;;;;;24.83;4.40;;;11.70;99.90;;;;;;4284058;27;20085;-53
2023/11/07 09:43:02;;;;;;;20.60;3.75;;;11.70;99.90;;;;;;4286078;27;20092;-54
2023/11/07 09:45:10;;;;;;;16.90;3.17;;;11.70;99.90;;;;;;4286055;27;20094;-53
2023/11/07 09:47:14;;;;;;;17.00;2.95;;;11.70;99.90;;;;;;4286056;27;20069;-52
2023/11/07 09:49:16;;;;;;;14.73;2.60;;;11.70;99.90;;;;;;4286234;27;20110;-53
2023/11/07 09:51:21;;;;;;;13.00;2.83;;;11.70;99.90;;;;;;4285980;27;20047;-53
2023/11/07 09:53:23;;;;;;;;;;;11.80;99.90;;;;;;4286192;27;20404;-60
2023/11/07 09:55:28;;;;;;;13.68;3.22;;;11.70;99.90;;;;;;4285576;27;20337;-53
2023/11/07 09:57:40;;;;;;;27.15;4.07;;;11.70;99.90;;;;;;4285502;27;20518;-53
2023/11/07 09:59:52;;;;;;;9.70;2.85;;;11.80;99.90;;;;;;4285349;27;20042;-55
2023/11/07 10:01:54;;;;;;;19.20;3.58;;;11.90;99.90;;;;;;4285650;27;20142;-56
2023/11/07 10:03:58;;;;;;;12.07;3.13;;;12.00;99.90;;;;;;4285363;27;20072;-56
2023/11/07 10:06:01;;;;;;;11.73;2.63;;;12.10;99.90;;;;;;4285304;27;20038;-56
2023/11/07 10:08:03;;;;;;;16.58;3.65;;;12.10;99.70;;;;;;4285280;27;20050;-53
2023/11/07 10:10:07;;;;;;;16.10;3.95;;;12.00;99.60;;;;;;4285207;27;20483;-53
2023/11/07 10:12:15;;;;;;;13.57;2.75;;;12.10;99.40;;;;;;4266982;27;20473;-53
2023/11/07 10:14:18;;;;;;;19.52;3.28;;;12.20;99.80;;;;;;4284961;27;20071;-55
2023/11/07 10:16:21;;;;;;;15.73;2.88;;;12.30;99.60;;;;;;4285254;27;20451;-53
2023/11/07 10:18:23;;;;;;;16.08;2.58;;;12.30;99.60;;;;;;4285186;27;20548;-52
2023/11/07 10:20:28;;;;;;;14.32;3.42;;;12.20;99.70;;;;;;4266420;27;20493;-54
2023/11/07 10:22:43;;;;;;;15.88;3.38;;;12.20;99.30;;;;;;4284861;27;20099;-53
2023/11/07 10:24:45;;;;;;;18.60;3.13;;;12.30;99.70;;;;;;4284917;27;20049;-53
2023/11/07 10:26:52;;;;;;;12.32;2.88;;;12.20;99.80;;;;;;4284814;27;20060;-52
2023/11/07 10:29:12;;;;;;;10.73;2.72;;;12.20;99.80;;;;;;4284599;27;20094;-53
2023/11/07 10:31:20;;;;;;;15.65;3.20;;;12.30;99.70;;;;;;4284797;27;20056;-56
2023/11/07 10:33:24;;;;;;;15.38;3.20;;;12.30;99.60;;;;;;4284802;27;20049;-53
2023/11/07 10:35:28;;;;;;;19.67;3.22;;;12.30;99.40;;;;;;4284979;27;20038;-52
2023/11/07 10:37:36;;;;;;;13.15;3.40;;;12.40;99.40;;;;;;4284892;27;20046;-53